Time;durP1;ratioP1;P1;durP2;ratioP2;P2;SDS_P1;SDS_P2;PMS_P1;PMS_P2;Temp;Humidity;BMP_temperature;BMP_pressure;BME280_temperature;BME280_humidity;BME280_pressure;Samples;Min_cycle;Max_cycle;Signal;HPM_P1;HPM_P2
2022/03/05 00:00:25;;;;;;;9.73;3.83;;;;;;;9.15;81.83;101704.16;7392523;19;20035;-82
2022/03/05 00:02:52;;;;;;;9.43;4.20;;;;;;;9.16;81.39;101705.81;7388718;19;20033;-81
2022/03/05 00:05:19;;;;;;;8.88;3.78;;;;;;;9.16;82.00;101708.44;7391129;19;20025;-82
2022/03/05 00:07:46;;;;;;;8.43;3.90;;;;;;;9.16;82.25;101706.66;7388228;19;20018;-82
2022/03/05 00:10:14;;;;;;;8.20;3.83;;;;;;;9.18;81.12;101712.63;7390537;19;20459;-82
2022/03/05 00:12:42;;;;;;;8.50;3.88;;;;;;;9.16;81.21;101708.44;7387954;19;20014;-82
2022/03/05 00:15:12;;;;;;;8.43;3.35;;;;;;;9.17;82.06;101710.13;7388573;19;20006;-82
2022/03/05 00:17:39;;;;;;;10.95;4.50;;;;;;;9.16;82.65;101713.69;7387860;19;20048;-79
2022/03/05 00:20:07;;;;;;;8.55;3.25;;;;;;;9.17;81.89;101713.59;7387821;19;20487;-80
2022/03/05 00:22:34;;;;;;;8.57;3.78;;;;;;;9.16;81.38;101717.16;7390443;19;20620;-80
2022/03/05 00:25:03;;;;;;;7.32;3.28;;;;;;;9.13;80.88;101716.56;7391139;19;20015;-81
2022/03/05 00:27:30;;;;;;;8.70;3.95;;;;;;;9.10;80.42;101719.44;7388515;19;20007;-81
2022/03/05 00:29:57;;;;;;;9.23;4.05;;;;;;;9.08;81.01;101724.81;7389133;19;20431;-81
2022/03/05 00:32:25;;;;;;;7.55;3.22;;;;;;;9.06;81.12;101718.00;7389322;19;20472;-82
2022/03/05 00:34:52;;;;;;;8.85;4.10;;;;;;;9.04;81.39;101718.13;7391235;19;20034;-82
2022/03/05 00:37:20;;;;;;;11.20;4.38;;;;;;;9.06;81.43;101718.00;7388488;19;20014;-81
2022/03/05 00:39:47;;;;;;;9.75;4.65;;;;;;;9.05;81.15;101705.84;7387812;19;20024;-82
2022/03/05 00:42:14;;;;;;;9.05;3.75;;;;;;;9.06;81.06;101716.22;7386221;19;20424;-81
2022/03/05 00:44:41;;;;;;;9.15;3.55;;;;;;;9.06;81.24;101721.47;7385940;19;20611;-81
2022/03/05 00:47:14;;;;;;;;;;;;;;;9.08;80.97;101718.72;7386471;19;20107;-81
2022/03/05 00:49:41;;;;;;;9.45;3.78;;;;;;;9.04;81.75;101723.38;7389251;19;20266;-81
2022/03/05 00:52:08;;;;;;;8.60;4.38;;;;;;;9.01;81.48;101721.84;7383813;19;20017;-82
2022/03/05 00:54:35;;;;;;;9.63;4.50;;;;;;;9.00;81.64;101721.94;7389930;19;20389;-81
2022/03/05 00:57:03;;;;;;;8.70;4.03;;;;;;;8.99;81.44;101718.47;7389812;19;20353;-84
2022/03/05 00:59:29;;;;;;;9.70;3.72;;;;;;;9.00;81.54;101724.56;7386955;19;20010;-81
2022/03/05 01:01:57;;;;;;;8.50;3.70;;;;;;;9.00;79.77;101730.66;7384612;19;20467;-81
2022/03/05 01:04:24;;;;;;;7.70;3.13;;;;;;;8.99;79.60;101730.75;7389398;19;20022;-81
2022/03/05 01:06:51;;;;;;;9.88;3.92;;;;;;;8.90;80.17;101721.84;7391384;19;20018;-82
2022/03/05 01:09:18;;;;;;;7.35;2.92;;;;;;;8.88;79.04;101722.94;7391359;19;20143;-81
2022/03/05 01:11:45;;;;;;;7.32;3.13;;;;;;;8.86;80.33;101728.28;7387524;19;20006;-81
2022/03/05 01:14:12;;;;;;;7.00;3.47;;;;;;;8.82;79.22;101726.84;7387450;19;20328;-81
2022/03/05 01:16:38;;;;;;;6.55;3.10;;;;;;;8.74;78.99;101720.50;7387401;19;20011;-80
2022/03/05 01:19:05;;;;;;;6.45;3.10;;;;;;;8.63;79.82;101724.00;7387976;19;20016;-81
2022/03/05 01:21:32;;;;;;;6.93;2.88;;;;;;;8.62;80.07;101724.94;7390603;19;20014;-80
2022/03/05 01:23:59;;;;;;;7.70;2.67;;;;;;;8.62;80.33;101732.81;7389618;19;20018;-81
2022/03/05 01:26:29;;;;;;;9.15;3.08;;;;;;;8.63;80.87;101737.09;7388171;19;20384;-81
2022/03/05 01:28:57;;;;;;;5.82;2.50;;;;;;;8.65;80.76;101734.34;7387719;19;20345;-81
2022/03/05 01:31:24;;;;;;;6.28;2.15;;;;;;;8.66;80.64;101731.63;7386608;19;20037;-81
2022/03/05 01:33:51;;;;;;;5.18;2.00;;;;;;;8.69;79.99;101743.63;7389649;19;20014;-81
2022/03/05 01:36:18;;;;;;;4.05;1.48;;;;;;;8.69;79.76;101731.38;7390012;19;20010;-82
2022/03/05 01:38:45;;;;;;;5.28;1.80;;;;;;;8.67;78.52;101733.28;7387076;19;20025;-81
2022/03/05 01:41:12;;;;;;;4.07;1.40;;;;;;;8.66;79.15;101738.66;7387193;19;20014;-80
2022/03/05 01:43:40;;;;;;;3.42;0.90;;;;;;;8.66;78.44;101733.41;7387809;19;20083;-80
2022/03/05 01:46:07;;;;;;;4.97;1.38;;;;;;;8.64;79.00;101728.25;7382952;19;20070;-80
2022/03/05 01:48:34;;;;;;;2.78;1.25;;;;;;;8.65;78.75;101731.72;7384075;19;20037;-80
2022/03/05 01:51:01;;;;;;;3.85;1.02;;;;;;;8.61;78.17;101731.13;7382717;19;20142;-81
2022/03/05 01:53:28;;;;;;;3.30;1.10;;;;;;;8.56;78.99;101733.28;7388044;19;20014;-81
2022/03/05 01:55:55;;;;;;;2.45;0.88;;;;;;;8.57;79.59;101735.78;7385896;19;20119;-81
2022/03/05 01:58:22;;;;;;;3.35;1.50;;;;;;;8.55;78.20;101736.84;7387830;19;20523;-81
2022/03/05 02:00:48;;;;;;;2.85;0.93;;;;;;;8.47;78.83;101731.34;7383721;19;20466;-81
2022/03/05 02:03:15;;;;;;;3.08;0.90;;;;;;;8.45;79.23;101733.25;7382538;19;20238;-81
2022/03/05 02:05:42;;;;;;;2.58;1.02;;;;;;;8.43;79.20;101733.34;7388049;19;20141;-81
2022/03/05 02:08:09;;;;;;;2.90;0.80;;;;;;;8.40;79.53;101736.22;7385996;19;20014;-80
2022/03/05 02:10:36;;;;;;;3.63;1.40;;;;;;;8.43;79.53;101730.72;7384054;19;20032;-80
2022/03/05 02:13:03;;;;;;;3.45;1.15;;;;;;;8.42;79.26;101730.88;7380602;19;20013;-80
2022/03/05 02:15:30;;;;;;;2.53;0.95;;;;;;;8.43;79.78;101737.78;7384229;19;20015;-81
2022/03/05 02:17:57;;;;;;;3.05;1.02;;;;;;;8.45;80.21;101739.34;7384018;19;20014;-81
2022/03/05 02:20:28;;;;;;;4.43;1.17;;;;;;;8.43;79.82;101732.53;7386697;19;20052;-81
2022/03/05 02:22:55;;;;;;;4.65;1.10;;;;;;;8.45;80.15;101735.88;7383219;19;20126;-80
2022/03/05 02:25:21;;;;;;;4.47;1.58;;;;;;;8.45;80.00;101735.88;7386146;19;20718;-81
2022/03/05 02:27:48;;;;;;;4.70;1.70;;;;;;;8.45;80.06;101733.25;7385422;19;20003;-81
2022/03/05 02:30:15;;;;;;;7.18;2.25;;;;;;;8.41;80.33;101730.03;7383674;19;20091;-81
2022/03/05 02:32:42;;;;;;;5.30;1.85;;;;;;;8.42;80.53;101731.72;7381042;19;20083;-82
2022/03/05 02:35:09;;;;;;;6.00;2.53;;;;;;;8.40;81.28;101730.97;7384041;19;20011;-82
2022/03/05 02:37:36;;;;;;;5.63;2.65;;;;;;;8.37;81.38;101733.00;7392671;19;20011;-82
2022/03/05 02:40:03;;;;;;;4.18;1.98;;;;;;;8.41;81.16;101737.06;7390440;19;20017;-82
2022/03/05 02:42:30;;;;;;;5.70;2.50;;;;;;;8.43;80.81;101729.94;7391118;19;20010;-81
2022/03/05 02:44:57;;;;;;;6.60;3.15;;;;;;;8.42;81.20;101734.34;7390438;19;20006;-81
2022/03/05 02:47:24;;;;;;;6.60;2.63;;;;;;;8.41;81.14;101716.91;7390807;19;20077;-81
2022/03/05 02:49:51;;;;;;;8.60;3.40;;;;;;;8.43;81.35;101725.50;7395434;19;20094;-82
2022/03/05 02:52:18;;;;;;;8.70;3.25;;;;;;;8.44;80.75;101726.31;7388524;19;20089;-81
2022/03/05 02:54:45;;;;;;;9.50;3.50;;;;;;;8.42;81.31;101733.50;7390887;19;20010;-81
2022/03/05 02:57:12;;;;;;;7.20;2.95;;;;;;;8.41;81.07;101729.19;7388620;19;20015;-81
2022/03/05 02:59:39;;;;;;;16.33;7.88;;;;;;;8.39;81.83;101724.06;7392593;19;20019;-82
2022/03/05 03:02:05;;;;;;;8.02;3.78;;;;;;;8.41;82.33;101726.56;7390078;19;20014;-81
2022/03/05 03:04:33;;;;;;;7.57;2.97;;;;;;;8.44;81.61;101724.53;7392928;19;20320;-81
2022/03/05 03:06:59;;;;;;;8.32;3.38;;;;;;;8.47;81.23;101721.72;7389830;19;20506;-82
2022/03/05 03:09:28;;;;;;;9.52;3.72;;;;;;;8.48;81.03;101719.91;7393059;19;20019;-81
2022/03/05 03:11:55;;;;;;;7.75;3.28;;;;;;;8.46;80.83;101725.28;7392982;19;20033;-83
2022/03/05 03:14:22;;;;;;;6.43;3.17;;;;;;;8.47;81.18;101728.72;7388735;19;20014;-81
2022/03/05 03:16:49;;;;;;;8.35;3.28;;;;;;;8.44;80.75;101731.56;7389004;19;20010;-82
2022/03/05 03:19:16;;;;;;;5.78;2.92;;;;;;;8.43;81.19;101741.22;7389255;19;20014;-82
2022/03/05 03:21:42;;;;;;;7.93;3.80;;;;;;;8.43;81.13;101735.16;7389505;19;20336;-82
2022/03/05 03:24:09;;;;;;;8.50;3.42;;;;;;;8.40;81.30;101740.63;7389343;19;20018;-81
2022/03/05 03:26:37;;;;;;;8.75;3.67;;;;;;;8.40;81.85;101733.59;7390760;19;20007;-80
2022/03/05 03:29:03;;;;;;;7.25;3.22;;;;;;;8.43;82.09;101735.97;7390792;19;20041;-81
2022/03/05 03:31:30;;;;;;;9.95;4.22;;;;;;;8.46;82.40;101729.69;7391462;19;20014;-81
2022/03/05 03:33:57;;;;;;;8.18;3.72;;;;;;;8.51;81.57;101738.88;7386595;19;20011;-80
2022/03/05 03:36:24;;;;;;;7.30;3.42;;;;;;;8.54;81.54;101741.25;7389186;19;20010;-80
2022/03/05 03:38:51;;;;;;;8.10;2.60;;;;;;;8.49;80.97;101743.38;7394857;19;20011;-81
2022/03/05 03:41:18;;;;;;;7.53;3.10;;;;;;;8.47;81.21;101747.94;7387861;19;20114;-80
2022/03/05 03:43:45;;;;;;;6.15;2.08;;;;;;;8.46;80.51;101748.03;7387794;19;20237;-80
2022/03/05 03:46:12;;;;;;;7.80;2.75;;;;;;;8.44;80.72;101753.38;7388736;19;20010;-80
2022/03/05 03:48:39;;;;;;;7.57;2.50;;;;;;;8.46;80.67;101750.66;7385741;19;20029;-81
2022/03/05 03:51:06;;;;;;;5.90;2.17;;;;;;;8.38;80.82;101743.34;7385474;19;20022;-80
2022/03/05 03:53:33;;;;;;;3.83;1.90;;;;;;;8.40;81.05;101745.88;7387078;19;20030;-81
2022/03/05 03:56:00;;;;;;;4.72;1.92;;;;;;;8.39;81.34;101746.81;7388095;19;20015;-81
2022/03/05 03:58:27;;;;;;;5.78;2.75;;;;;;;8.40;81.15;101741.47;7387526;19;20447;-81
2022/03/05 04:00:53;;;;;;;4.53;1.95;;;;;;;8.41;80.48;101751.00;7389698;19;20038;-81
2022/03/05 04:03:20;;;;;;;4.20;2.03;;;;;;;8.43;81.34;101741.22;7387563;19;20024;-81
2022/03/05 04:05:47;;;;;;;6.10;2.95;;;;;;;8.43;81.40;101748.28;7386619;19;20149;-80
2022/03/05 04:10:51;;;;;;;3.42;1.55;;;;;;;8.47;80.56;101753.19;7386260;19;20506;-81
2022/03/05 04:13:18;;;;;;;4.10;1.92;;;;;;;8.47;80.90;101747.94;7386354;19;20151;-81
2022/03/05 04:15:46;;;;;;;5.95;1.60;;;;;;;8.45;81.17;101743.72;7385896;19;20115;-81
2022/03/05 04:18:13;;;;;;;3.22;1.35;;;;;;;8.44;81.20;101747.31;7391055;19;20025;-80
2022/03/05 04:20:40;;;;;;;2.75;1.05;;;;;;;8.41;80.92;101747.53;7386142;19;20011;-81
2022/03/05 04:23:07;;;;;;;4.53;1.40;;;;;;;8.42;80.84;101749.22;7386390;19;20349;-80
2022/03/05 04:25:34;;;;;;;4.47;1.20;;;;;;;8.41;81.89;101752.78;7387426;19;20685;-80
2022/03/05 04:28:00;;;;;;;5.55;1.45;;;;;;;8.40;82.41;101748.50;7388842;19;20015;-80
2022/03/05 04:30:27;;;;;;;3.30;1.10;;;;;;;8.38;82.60;101748.59;7386535;19;20368;-81
2022/03/05 04:32:54;;;;;;;2.30;1.00;;;;;;;8.40;82.19;101751.13;7383598;19;20049;-81
2022/03/05 04:35:21;;;;;;;2.90;0.80;;;;;;;8.41;82.04;101751.00;7390091;19;20483;-81
2022/03/05 04:37:48;;;;;;;2.75;1.10;;;;;;;8.41;82.72;101758.03;7384694;19;20344;-81
2022/03/05 04:40:15;;;;;;;3.80;1.35;;;;;;;8.36;82.02;101757.56;7387142;19;20023;-81
2022/03/05 04:42:42;;;;;;;7.72;2.28;;;;;;;8.35;82.44;101751.47;7384374;19;20010;-81
2022/03/05 04:45:09;;;;;;;2.33;1.10;;;;;;;8.37;83.34;101749.56;7386415;19;20251;-81
2022/03/05 04:47:37;;;;;;;2.88;1.23;;;;;;;8.36;83.26;101753.16;7384078;19;20041;-80
2022/03/05 04:50:05;;;;;;;3.63;1.10;;;;;;;8.36;82.74;101749.69;7386733;19;20037;-80
2022/03/05 04:52:32;;;;;;;3.88;1.48;;;;;;;8.36;83.61;101754.94;7383162;19;20011;-81
2022/03/05 04:54:59;;;;;;;3.20;1.25;;;;;;;8.35;83.76;101756.72;7384339;19;20019;-81
2022/03/05 04:57:26;;;;;;;3.75;1.27;;;;;;;8.38;84.18;101759.09;7383417;19;20425;-82
2022/03/05 04:59:55;;;;;;;4.40;1.40;;;;;;;8.40;84.10;101758.97;7387200;19;20010;-81
2022/03/05 05:02:22;;;;;;;3.28;1.10;;;;;;;8.39;83.34;101752.91;7383123;19;20013;-81
2022/03/05 05:04:50;;;;;;;3.38;1.30;;;;;;;8.39;83.59;101759.94;7387064;19;20139;-81
2022/03/05 05:07:17;;;;;;;3.63;1.38;;;;;;;8.38;83.97;101758.28;7383914;19;20010;-80
2022/03/05 05:09:44;;;;;;;5.53;1.45;;;;;;;8.37;84.24;101760.06;7385992;19;20078;-80
2022/03/05 05:12:11;;;;;;;3.58;1.30;;;;;;;8.39;84.24;101760.75;7387894;19;20018;-81
2022/03/05 05:14:38;;;;;;;6.97;1.48;;;;;;;8.37;83.73;101761.84;7383309;19;20019;-80
2022/03/05 05:17:06;;;;;;;4.25;1.20;;;;;;;8.36;83.86;101754.94;7382165;19;20515;-81
2022/03/05 05:19:33;;;;;;;3.50;1.10;;;;;;;8.35;83.70;101759.34;7385158;19;20102;-81
2022/03/05 05:22:03;;;;;;;5.05;1.52;;;;;;;8.31;83.82;101760.53;7383188;19;20010;-80
2022/03/05 05:24:32;;;;;;;4.93;1.13;;;;;;;8.26;83.65;101772.25;7389131;19;20113;-80
2022/03/05 05:27:00;;;;;;;4.43;1.02;;;;;;;8.21;83.81;101756.03;7386054;19;20006;-81
2022/03/05 05:29:27;;;;;;;5.07;1.20;;;;;;;8.22;85.05;101771.66;7385340;19;20011;-80
2022/03/05 05:32:10;;;;;;;3.70;1.20;;;;;;;8.17;84.63;101773.78;7385696;19;20339;-82
2022/03/05 05:34:38;;;;;;;2.60;0.98;;;;;;;8.11;84.42;101780.31;7383193;19;20043;-80
2022/03/05 05:37:13;;;;;;;5.28;0.98;;;;;;;8.09;84.11;101779.59;7382988;19;20062;-81
2022/03/05 05:39:40;;;;;;;5.55;1.40;;;;;;;8.10;85.21;101775.19;7382109;19;20015;-81
2022/03/05 05:42:07;;;;;;;2.65;0.82;;;;;;;8.12;84.97;101783.78;7383513;19;20026;-80
2022/03/05 05:44:34;;;;;;;2.80;0.95;;;;;;;8.12;85.21;101778.53;7384082;19;20363;-81
2022/03/05 05:47:02;;;;;;;4.07;0.90;;;;;;;8.16;85.67;101786.06;7381402;19;20422;-80
2022/03/05 05:49:29;;;;;;;2.90;0.85;;;;;;;8.18;85.00;101778.06;7387644;19;20397;-81
2022/03/05 05:51:56;;;;;;;4.18;0.95;;;;;;;8.18;84.76;101781.53;7383048;19;20022;-81
2022/03/05 05:54:23;;;;;;;3.70;0.93;;;;;;;8.19;84.47;101790.22;7380768;19;20039;-81
2022/03/05 05:56:50;;;;;;;3.10;0.90;;;;;;;8.20;84.56;101785.81;7382380;19;20049;-80
2022/03/05 05:59:17;;;;;;;4.47;0.90;;;;;;;8.21;85.35;101795.38;7382056;19;20549;-81
2022/03/05 06:01:44;;;;;;;3.25;0.90;;;;;;;8.18;84.80;101790.34;7385298;19;20519;-80
2022/03/05 06:04:11;;;;;;;3.03;0.85;;;;;;;8.20;83.72;101797.16;7385627;19;20018;-80
2022/03/05 06:06:38;;;;;;;1.65;0.60;;;;;;;8.15;83.91;101789.63;7384645;19;20034;-81
2022/03/05 06:09:05;;;;;;;2.10;0.60;;;;;;;8.13;84.59;101788.88;7383115;19;20040;-81
2022/03/05 06:11:35;;;;;;;2.70;0.65;;;;;;;8.11;84.95;101785.56;7382734;19;20010;-83
2022/03/05 06:14:02;;;;;;;3.30;0.70;;;;;;;8.09;84.68;101795.31;7380905;19;20014;-80
2022/03/05 06:16:29;;;;;;;5.00;0.70;;;;;;;8.11;85.36;101800.44;7380616;19;20011;-80
2022/03/05 06:18:56;;;;;;;4.47;0.70;;;;;;;8.13;85.73;101803.78;7381718;19;20029;-80
2022/03/05 06:21:23;;;;;;;2.03;0.55;;;;;;;8.16;85.41;101801.78;7380798;19;20010;-80
2022/03/05 06:23:50;;;;;;;3.95;0.60;;;;;;;8.17;85.33;101800.00;7385605;19;20026;-81
2022/03/05 06:26:17;;;;;;;6.20;0.60;;;;;;;8.10;84.66;101804.00;7386263;19;20123;-81
2022/03/05 06:28:43;;;;;;;1.80;0.60;;;;;;;8.05;85.10;101806.13;7384272;19;20066;-80
2022/03/05 06:31:11;;;;;;;3.00;0.70;;;;;;;8.05;85.20;101806.97;7380400;19;20037;-80
2022/03/05 06:33:37;;;;;;;5.03;1.00;;;;;;;8.03;85.48;101801.00;7382628;19;20018;-80
2022/03/05 06:36:05;;;;;;;4.93;0.70;;;;;;;8.02;85.46;101809.84;7384825;19;20355;-80
2022/03/05 06:38:32;;;;;;;3.92;0.77;;;;;;;8.03;86.08;101810.63;7384228;19;20456;-80
2022/03/05 06:40:59;;;;;;;2.30;0.50;;;;;;;8.07;85.16;101814.72;7381872;19;20037;-81
2022/03/05 06:43:25;;;;;;;3.97;0.60;;;;;;;8.02;83.97;101807.22;7382308;19;20037;-81
2022/03/05 06:45:52;;;;;;;2.15;0.50;;;;;;;8.05;84.71;101814.00;7388394;19;20013;-81
2022/03/05 06:48:19;;;;;;;3.65;0.55;;;;;;;8.04;84.85;101815.78;7382766;19;20107;-80
2022/03/05 06:50:46;;;;;;;3.17;1.17;;;;;;;8.04;84.91;101814.94;7384762;19;20017;-81
2022/03/05 06:53:13;;;;;;;1.20;0.50;;;;;;;8.05;84.50;101822.69;7383177;19;20015;-81
2022/03/05 06:55:40;;;;;;;3.95;0.75;;;;;;;8.08;84.15;101826.88;7383110;19;20007;-80
2022/03/05 06:58:08;;;;;;;4.85;0.82;;;;;;;8.09;84.09;101829.38;7381679;19;20366;-80
2022/03/05 07:00:35;;;;;;;5.03;0.90;;;;;;;8.12;83.04;101841.44;7383852;19;20035;-80
2022/03/05 07:03:03;;;;;;;3.42;0.60;;;;;;;8.12;82.84;101838.81;7380268;19;20010;-81
2022/03/05 07:05:30;;;;;;;3.33;0.60;;;;;;;8.11;82.57;101842.38;7385265;19;20026;-81
2022/03/05 07:07:56;;;;;;;3.42;0.88;;;;;;;8.10;82.97;101840.72;7381373;19;20011;-80
2022/03/05 07:10:23;;;;;;;8.10;2.90;;;;;;;8.04;83.23;101849.00;7380982;19;20264;-82
2022/03/05 07:13:09;;;;;;;8.00;3.03;;;;;;;8.04;83.38;101846.38;7383019;19;20007;-81
2022/03/05 07:15:42;;;;;;;1.55;0.70;;;;;;;8.05;83.18;101845.44;7382260;19;20515;-81
2022/03/05 07:18:09;;;;;;;6.88;0.70;;;;;;;8.02;83.07;101859.63;7384137;19;20018;-81
2022/03/05 07:20:36;;;;;;;4.50;0.68;;;;;;;8.04;83.62;101854.25;7381354;19;20365;-80
2022/03/05 07:23:04;;;;;;;4.65;0.60;;;;;;;8.01;84.01;101851.88;7389031;19;20014;-81
2022/03/05 07:25:39;;;;;;;2.72;0.80;;;;;;;8.04;84.74;101859.50;7390496;19;20098;-81
2022/03/05 07:28:15;;;;;;;2.85;1.15;;;;;;;8.05;84.36;101869.03;7389467;19;20419;-81
2022/03/05 07:30:51;;;;;;;1.55;0.70;;;;;;;8.01;84.40;101857.94;7387831;19;20059;-82
2022/03/05 07:33:19;;;;;;;2.42;0.63;;;;;;;8.06;84.75;101863.69;7387657;19;20126;-82
2022/03/05 07:35:45;;;;;;;5.88;1.02;;;;;;;8.08;83.91;101871.41;7390318;19;20003;-82
2022/03/05 07:38:12;;;;;;;2.33;0.80;;;;;;;8.09;83.70;101866.06;7390796;19;20041;-81
2022/03/05 07:40:39;;;;;;;3.30;0.77;;;;;;;8.07;83.09;101869.78;7387342;19;20053;-79
2022/03/05 07:43:06;;;;;;;1.70;0.80;;;;;;;8.00;83.55;101874.59;7388299;19;20489;-81
2022/03/05 07:45:33;;;;;;;3.13;1.00;;;;;;;7.98;84.46;101868.63;7390914;19;20029;-80
2022/03/05 07:48:00;;;;;;;4.45;0.98;;;;;;;7.99;84.56;101878.16;7386362;19;20257;-81
2022/03/05 07:50:27;;;;;;;5.57;0.90;;;;;;;7.98;84.19;101871.25;7392626;19;20007;-81
2022/03/05 07:52:54;;;;;;;3.55;0.80;;;;;;;7.97;84.45;101879.25;7388021;19;20007;-80
2022/03/05 07:55:21;;;;;;;3.03;0.98;;;;;;;7.99;85.47;101877.34;7389105;19;20011;-81
2022/03/05 07:57:48;;;;;;;2.92;0.90;;;;;;;7.99;85.02;101879.94;7388421;19;20015;-80
2022/03/05 08:00:15;;;;;;;5.95;0.65;;;;;;;7.96;84.79;101883.66;7390927;19;20010;-81
2022/03/05 08:02:48;;;;;;;4.03;0.73;;;;;;;7.94;85.09;101882.91;7385833;19;20015;-82
2022/03/05 08:05:16;;;;;;;2.22;0.60;;;;;;;7.98;85.03;101881.72;7388585;19;20018;-81
2022/03/05 08:07:43;;;;;;;2.00;0.50;;;;;;;8.04;84.68;101883.91;7388716;19;20050;-82
2022/03/05 08:10:10;;;;;;;4.63;0.95;;;;;;;8.06;85.22;101887.28;7387964;19;20014;-80
2022/03/05 08:12:37;;;;;;;1.83;0.60;;;;;;;8.09;85.32;101888.81;7387499;19;20038;-82
2022/03/05 08:15:05;;;;;;;3.35;0.90;;;;;;;8.10;85.82;101890.50;7390851;19;20617;-80
2022/03/05 08:17:32;;;;;;;2.33;0.93;;;;;;;8.13;86.00;101893.72;7384668;19;20018;-79
2022/03/05 08:19:59;;;;;;;2.90;0.60;;;;;;;8.18;85.18;101896.00;7385451;19;20099;-82
2022/03/05 08:22:27;;;;;;;2.42;0.55;;;;;;;8.13;84.86;101896.34;7388055;19;20038;-82
2022/03/05 08:24:55;;;;;;;2.85;1.05;;;;;;;8.12;84.95;101897.31;7385924;19;20010;-80
2022/03/05 08:27:21;;;;;;;1.42;0.50;;;;;;;8.09;85.04;101892.28;7387518;19;20362;-81
2022/03/05 08:29:49;;;;;;;2.92;0.70;;;;;;;8.06;84.88;101891.69;7389468;19;20011;-81
2022/03/05 08:32:16;;;;;;;2.80;0.90;;;;;;;8.09;86.14;101896.69;7385581;19;20332;-81
2022/03/05 08:34:43;;;;;;;2.47;0.60;;;;;;;8.14;85.52;101891.94;7384537;19;20010;-82
2022/03/05 08:37:09;;;;;;;1.73;0.70;;;;;;;8.18;85.08;101893.41;7388292;19;20015;-82
2022/03/05 08:39:37;;;;;;;2.13;0.70;;;;;;;8.21;85.30;101893.19;7386622;19;20087;-80
2022/03/05 08:42:04;;;;;;;3.17;0.82;;;;;;;8.25;83.55;101899.88;7384315;19;20019;-81
2022/03/05 08:44:32;;;;;;;1.98;0.68;;;;;;;8.32;83.53;101895.06;7389540;19;20015;-81
2022/03/05 08:46:59;;;;;;;3.20;0.55;;;;;;;8.33;83.57;101891.50;7384737;19;20135;-84
2022/03/05 08:49:26;;;;;;;4.63;0.73;;;;;;;8.34;83.49;101883.50;7387447;19;20327;-82
2022/03/05 08:51:56;;;;;;;6.18;0.70;;;;;;;8.38;82.91;101890.19;7382965;19;20141;-82
2022/03/05 08:54:25;;;;;;;1.77;0.50;;;;;;;8.38;81.87;101881.53;7388462;19;20054;-82
2022/03/05 08:56:52;;;;;;;2.80;0.80;;;;;;;8.40;83.19;101890.94;7389741;19;20356;-80
2022/03/05 08:59:19;;;;;;;3.70;0.88;;;;;;;8.42;81.57;101893.44;7387965;19;20037;-80
2022/03/05 09:01:46;;;;;;;2.65;0.65;;;;;;;8.45;81.62;101894.06;7387086;19;20074;-81
2022/03/05 09:04:13;;;;;;;2.75;0.60;;;;;;;8.48;81.57;101898.25;7385138;19;20018;-81
2022/03/05 09:06:41;;;;;;;2.22;0.70;;;;;;;8.51;81.77;101900.63;7383675;19;20011;-81
2022/03/05 09:09:08;;;;;;;7.32;0.73;;;;;;;8.51;81.92;101903.25;7382864;19;20007;-80
2022/03/05 09:11:38;;;;;;;3.70;0.73;;;;;;;8.51;80.66;101911.97;7387450;19;20014;-81
2022/03/05 09:14:06;;;;;;;1.33;0.60;;;;;;;8.53;80.25;101901.38;7385191;19;20023;-81
2022/03/05 09:16:37;;;;;;;2.15;0.50;;;;;;;8.52;80.65;101913.66;7383250;19;20313;-82
2022/03/05 09:19:05;;;;;;;3.63;0.47;;;;;;;8.54;80.82;101918.75;7382875;19;20011;-81
2022/03/05 09:21:34;;;;;;;3.20;0.60;;;;;;;8.54;80.41;101916.13;7383294;19;20014;-80
2022/03/05 09:24:02;;;;;;;3.55;0.47;;;;;;;8.47;80.06;101912.31;7384293;19;20283;-82
2022/03/05 09:26:29;;;;;;;1.40;0.73;;;;;;;8.43;81.02;101911.66;7386203;19;20006;-81
2022/03/05 09:28:56;;;;;;;1.50;0.40;;;;;;;8.41;81.46;101918.84;7384360;19;20006;-81
2022/03/05 09:31:24;;;;;;;2.53;0.52;;;;;;;8.37;81.53;101914.75;7382287;19;20038;-82
2022/03/05 09:33:54;;;;;;;5.47;0.82;;;;;;;8.40;81.63;101911.06;7382594;19;20011;-81
2022/03/05 09:36:21;;;;;;;2.55;0.60;;;;;;;8.44;81.17;101912.50;7385840;19;20452;-81
2022/03/05 09:38:48;;;;;;;3.65;0.70;;;;;;;8.46;81.25;101913.25;7382243;19;20013;-79
2022/03/05 09:41:15;;;;;;;3.80;0.50;;;;;;;8.47;80.93;101913.16;7383547;19;20340;-81
2022/03/05 09:43:43;;;;;;;1.23;0.70;;;;;;;8.47;80.46;101914.94;7385856;19;20037;-81
2022/03/05 09:46:11;;;;;;;2.78;0.70;;;;;;;8.52;80.82;101908.41;7384664;19;20090;-80
2022/03/05 09:48:40;;;;;;;4.25;0.50;;;;;;;8.53;80.01;101911.88;7387153;19;20019;-82
2022/03/05 09:51:08;;;;;;;2.00;0.45;;;;;;;8.46;80.04;101919.34;7383189;19;20028;-80
2022/03/05 09:53:35;;;;;;;2.30;0.47;;;;;;;8.49;80.25;101924.34;7386613;19;20031;-81
2022/03/05 09:56:03;;;;;;;4.32;0.50;;;;;;;8.51;81.10;101906.72;7381202;19;20376;-79
2022/03/05 09:58:48;;;;;;;4.45;0.50;;;;;;;8.54;81.20;101911.72;7381748;19;20131;-78
2022/03/05 10:01:16;;;;;;;5.38;0.50;;;;;;;8.53;80.38;101924.97;7377408;19;20032;-80
2022/03/05 10:03:45;;;;;;;4.57;0.77;;;;;;;8.50;80.64;101914.69;7380271;19;20140;-78
2022/03/05 10:06:16;;;;;;;3.10;0.75;;;;;;;8.51;80.67;101927.69;7383931;19;20014;-81
2022/03/05 10:08:44;;;;;;;1.63;0.50;;;;;;;8.55;80.91;101923.91;7380526;19;20010;-81
2022/03/05 10:11:12;;;;;;;2.22;0.60;;;;;;;8.59;80.66;101927.13;7383833;19;20017;-79
2022/03/05 10:13:42;;;;;;;1.27;0.47;;;;;;;8.58;79.90;101926.28;7381703;19;20014;-82
2022/03/05 10:16:22;;;;;;;4.70;0.60;;;;;;;8.57;80.27;101929.03;7381430;19;20078;-82
2022/03/05 10:18:50;;;;;;;4.57;0.52;;;;;;;8.54;80.69;101932.72;7386885;19;20139;-80
2022/03/05 10:21:17;;;;;;;2.80;0.47;;;;;;;8.56;80.54;101925.56;7387343;19;20688;-81
2022/03/05 10:23:47;;;;;;;2.00;0.57;;;;;;;8.58;81.07;101936.78;7386507;19;20010;-80
2022/03/05 10:26:15;;;;;;;4.10;0.70;;;;;;;8.62;79.93;101931.31;7388201;19;20128;-80
2022/03/05 10:28:43;;;;;;;2.10;0.50;;;;;;;8.64;79.97;101929.41;7386741;19;20027;-81
2022/03/05 10:31:11;;;;;;;2.35;0.60;;;;;;;8.66;79.90;101941.47;7390340;19;20113;-81
2022/03/05 10:33:42;;;;;;;1.35;0.40;;;;;;;8.63;79.77;101938.25;7387387;19;20011;-80
2022/03/05 10:36:18;;;;;;;0.85;0.35;;;;;;;8.57;79.58;101922.00;7386846;19;20011;-80
2022/03/05 10:38:56;;;;;;;1.08;0.40;;;;;;;8.65;80.16;101921.44;7387170;19;20515;-81
2022/03/05 10:41:33;;;;;;;1.85;0.35;;;;;;;8.68;79.80;101930.88;7387326;19;20376;-81
2022/03/05 10:44:04;;;;;;;1.10;0.40;;;;;;;8.69;79.07;101924.66;7383383;19;20033;-82
2022/03/05 10:46:42;;;;;;;1.08;0.50;;;;;;;8.68;80.54;101931.72;7388486;19;20025;-82
2022/03/05 10:49:17;;;;;;;1.65;0.50;;;;;;;8.71;79.64;101931.47;7387227;19;20019;-81
2022/03/05 10:51:47;;;;;;;2.75;0.57;;;;;;;8.77;79.78;101932.81;7386689;19;20010;-83
2022/03/05 10:54:26;;;;;;;3.70;0.50;;;;;;;8.76;79.03;101941.63;7389747;19;20003;-80
2022/03/05 10:56:56;;;;;;;1.48;0.50;;;;;;;8.79;79.57;101944.00;7391654;19;20043;-80
2022/03/05 10:59:23;;;;;;;3.30;0.43;;;;;;;8.83;80.02;101948.94;7397405;19;20006;-81
2022/03/05 11:01:51;;;;;;;1.50;0.30;;;;;;;8.88;78.89;101948.59;7395325;19;20002;-84
2022/03/05 11:04:18;;;;;;;3.75;0.50;;;;;;;8.88;78.99;101946.81;7400827;19;20026;-83
2022/03/05 11:06:45;;;;;;;2.08;0.40;;;;;;;8.94;78.67;101943.72;7394191;19;20017;-80
2022/03/05 11:09:13;;;;;;;1.80;0.52;;;;;;;8.97;78.56;101945.28;7387191;19;20014;-80
2022/03/05 11:11:43;;;;;;;2.47;0.40;;;;;;;9.00;78.88;101943.25;7391204;19;20117;-81
2022/03/05 11:14:13;;;;;;;1.70;0.50;;;;;;;9.01;78.24;101963.31;7388248;19;20495;-81
2022/03/05 11:16:41;;;;;;;3.42;0.52;;;;;;;9.06;78.83;101947.22;7390526;19;20015;-81
2022/03/05 11:19:09;;;;;;;4.13;0.40;;;;;;;9.01;77.74;101958.06;7390108;19;20025;-78
2022/03/05 11:21:36;;;;;;;2.00;0.50;;;;;;;9.02;78.46;101951.88;7387383;19;20461;-82
2022/03/05 11:24:06;;;;;;;1.00;0.40;;;;;;;9.01;79.04;101955.44;7387068;19;20348;-81
2022/03/05 11:26:37;;;;;;;2.35;0.40;;;;;;;8.98;78.83;101958.31;7388886;19;20033;-81
2022/03/05 11:29:26;;;;;;;1.67;1.05;;;;;;;8.95;79.21;101960.31;7387589;19;20563;-80
2022/03/05 11:32:10;;;;;;;3.97;0.40;;;;;;;8.92;79.40;101960.53;7387929;19;20463;-80
2022/03/05 11:34:50;;;;;;;2.47;0.55;;;;;;;8.93;79.81;101952.56;7386530;19;20009;-82
2022/03/05 11:37:28;;;;;;;2.42;0.30;;;;;;;8.95;79.77;101955.06;7386374;19;20030;-82
2022/03/05 11:39:55;;;;;;;1.33;0.30;;;;;;;8.98;79.89;101963.56;7387903;19;20033;-80